createdAt,value
2023-01-11T00:00:44.679Z,0.00
2023-01-11T00:01:44.715Z,0.00
2023-01-11T00:02:44.657Z,0.00
2023-01-11T00:03:44.665Z,0.00
2023-01-11T00:04:44.656Z,0.00
2023-01-11T00:05:44.966Z,0.00
2023-01-11T00:06:44.648Z,0.00
2023-01-11T00:07:44.588Z,0.00
2023-01-11T00:08:44.587Z,0.00
2023-01-11T00:09:44.557Z,0.00
2023-01-11T00:10:44.593Z,0.00
2023-01-11T00:11:44.670Z,0.00
2023-01-11T00:12:44.537Z,0.00
2023-01-11T00:13:44.536Z,0.00
2023-01-11T00:14:44.519Z,0.00
2023-01-11T00:15:44.516Z,0.00
2023-01-11T00:16:44.499Z,0.00
2023-01-11T00:17:44.531Z,0.00
2023-01-11T00:18:44.494Z,0.00
2023-01-11T00:19:44.440Z,0.00
2023-01-11T00:20:44.484Z,0.00
2023-01-11T00:21:44.447Z,0.00
2023-01-11T00:22:44.665Z,0.00
2023-01-11T00:23:44.421Z,0.00
2023-01-11T00:24:44.391Z,0.00
2023-01-11T00:25:44.371Z,0.00
2023-01-11T00:26:44.405Z,0.00
2023-01-11T00:27:44.356Z,0.00
2023-01-11T00:28:44.601Z,0.00
2023-01-11T00:29:44.363Z,0.00
2023-01-11T00:30:44.349Z,0.00
2023-01-11T00:31:44.332Z,0.00
2023-01-11T00:32:44.338Z,0.00
2023-01-11T00:33:44.299Z,0.00
2023-01-11T00:34:44.699Z,0.00
2023-01-11T00:35:44.282Z,0.00
2023-01-11T00:36:44.269Z,0.00
2023-01-11T00:37:44.278Z,0.00
2023-01-11T00:38:44.262Z,0.00
2023-01-11T00:39:44.436Z,0.00
2023-01-11T00:40:44.202Z,0.00
2023-01-11T00:41:44.182Z,0.00
2023-01-11T00:42:44.191Z,0.00
2023-01-11T00:43:44.164Z,0.00
2023-01-11T00:44:44.191Z,0.00
2023-01-11T00:45:44.414Z,0.00
2023-01-11T00:46:44.161Z,0.00
2023-01-11T00:47:44.135Z,0.00
2023-01-11T00:48:44.122Z,0.00
2023-01-11T00:49:44.086Z,0.00
2023-01-11T00:50:44.085Z,0.00
2023-01-11T00:51:44.503Z,0.00
2023-01-11T00:52:44.095Z,0.00
2023-01-11T00:53:44.035Z,0.00
2023-01-11T00:54:44.046Z,0.00
2023-01-11T00:55:44.051Z,0.00
2023-01-11T00:56:44.040Z,0.00
2023-01-11T00:57:44.115Z,0.00
2023-01-11T00:58:44.018Z,0.00
2023-01-11T00:59:43.968Z,0.00
2023-01-11T01:00:43.969Z,0.00
2023-01-11T01:01:44.073Z,0.00
2023-01-11T01:02:44.003Z,0.00
2023-01-11T01:03:43.998Z,0.00
2023-01-11T01:04:43.927Z,0.00
2023-01-11T01:05:43.898Z,0.00
2023-01-11T01:06:43.945Z,0.00
2023-01-11T01:07:43.912Z,0.00
2023-01-11T01:08:43.959Z,0.00
2023-01-11T01:09:43.869Z,0.00
2023-01-11T01:10:43.874Z,0.00
2023-01-11T01:11:43.833Z,0.00
2023-01-11T01:12:43.820Z,0.00
2023-01-11T01:13:43.856Z,0.00
2023-01-11T01:14:43.826Z,0.00
2023-01-11T01:15:43.806Z,0.00
2023-01-11T01:16:43.797Z,0.00
2023-01-11T01:17:43.781Z,0.00
2023-01-11T01:18:43.794Z,0.00
2023-01-11T01:19:43.728Z,0.00
2023-01-11T01:20:43.734Z,0.00
2023-01-11T01:21:43.710Z,0.00
2023-01-11T01:22:43.787Z,0.00
2023-01-11T01:23:43.716Z,0.00
2023-01-11T01:24:43.682Z,0.00
2023-01-11T01:25:43.656Z,0.00
2023-01-11T01:26:43.749Z,0.00
2023-01-11T01:27:43.674Z,0.00
2023-01-11T01:28:43.693Z,0.00
2023-01-11T01:29:43.628Z,0.00
2023-01-11T01:30:43.662Z,0.00
2023-01-11T01:31:43.607Z,0.00
2023-01-11T01:32:43.599Z,0.00
2023-01-11T01:33:43.654Z,0.00
2023-01-11T01:34:43.582Z,0.00
2023-01-11T01:35:43.636Z,0.00
2023-01-11T01:36:43.564Z,0.00
2023-01-11T01:37:43.561Z,0.00
2023-01-11T01:38:43.645Z,0.00
2023-01-11T01:39:43.548Z,0.00
2023-01-11T01:40:43.502Z,0.00
2023-01-11T01:41:43.503Z,0.00
2023-01-11T01:42:43.457Z,0.00
2023-01-11T01:43:43.581Z,0.00
2023-01-11T01:44:43.483Z,0.00
2023-01-11T01:45:43.537Z,0.00
2023-01-11T01:46:43.443Z,0.00
2023-01-11T01:47:43.406Z,0.00
2023-01-11T01:48:43.425Z,0.00
2023-01-11T01:49:43.379Z,0.00
2023-01-11T01:50:43.394Z,0.00
2023-01-11T01:51:43.388Z,0.00
2023-01-11T01:52:43.369Z,0.00
2023-01-11T01:53:43.332Z,0.00
2023-01-11T01:54:43.328Z,0.00
2023-01-11T01:55:43.418Z,0.00
2023-01-11T01:56:43.327Z,0.00
2023-01-11T01:57:43.279Z,0.00
2023-01-11T01:58:43.318Z,0.00
2023-01-11T01:59:43.269Z,0.00
2023-01-11T02:00:43.267Z,0.00
2023-01-11T02:01:43.734Z,0.00
2023-01-11T02:02:43.395Z,0.00
2023-01-11T02:03:43.209Z,0.00
2023-01-11T02:04:43.209Z,0.00
2023-01-11T02:05:43.180Z,0.00
2023-01-11T02:06:43.270Z,0.00
2023-01-11T02:07:43.200Z,0.00
2023-01-11T02:08:43.177Z,0.00
2023-01-11T02:09:43.157Z,0.00
2023-01-11T02:10:43.140Z,0.00
2023-01-11T02:11:43.139Z,0.00
2023-01-11T02:12:43.147Z,0.00
2023-01-11T02:13:43.093Z,0.00
2023-01-11T02:14:43.093Z,0.00
2023-01-11T02:15:43.159Z,0.00
2023-01-11T02:16:43.063Z,0.00
2023-01-11T02:17:43.063Z,0.00
2023-01-11T02:18:43.083Z,0.00
2023-01-11T02:19:43.048Z,0.00
2023-01-11T02:20:43.062Z,0.00
2023-01-11T02:21:43.021Z,0.00
2023-01-11T02:22:43.020Z,0.00
2023-01-11T02:23:42.975Z,0.00
2023-01-11T02:24:43.044Z,0.00
2023-01-11T02:25:42.990Z,0.00
2023-01-11T02:26:42.979Z,0.00
2023-01-11T02:27:42.952Z,0.00
2023-01-11T02:28:42.925Z,0.00
2023-01-11T02:29:42.921Z,0.00
2023-01-11T02:30:42.953Z,0.00
2023-01-11T02:31:42.910Z,0.00
2023-01-11T02:32:42.876Z,0.00
2023-01-11T02:33:42.884Z,0.00
2023-01-11T02:34:42.886Z,0.00
2023-01-11T02:35:42.844Z,0.00
2023-01-11T02:36:42.886Z,0.00
2023-01-11T02:37:42.814Z,0.00
2023-01-11T02:38:42.810Z,0.00
2023-01-11T02:39:42.787Z,0.00
2023-01-11T02:40:42.836Z,0.00
2023-01-11T02:41:42.784Z,0.00
2023-01-11T02:42:42.787Z,0.00
2023-01-11T02:43:42.746Z,0.00
2023-01-11T02:44:42.764Z,0.00
2023-01-11T02:45:42.742Z,0.00
2023-01-11T02:46:42.785Z,0.00
2023-01-11T02:47:42.835Z,0.00
2023-01-11T02:48:42.715Z,0.00
2023-01-11T02:49:42.673Z,0.00
2023-01-11T02:50:42.704Z,0.00
2023-01-11T02:51:42.660Z,0.00
2023-01-11T02:52:42.675Z,0.00
2023-01-11T02:53:42.650Z,0.00
2023-01-11T02:54:42.667Z,0.00
2023-01-11T02:55:42.623Z,0.00
2023-01-11T02:56:42.598Z,0.00
2023-01-11T02:57:42.630Z,0.00
2023-01-11T02:58:42.596Z,0.00
2023-01-11T02:59:42.585Z,0.00
2023-01-11T03:00:42.576Z,0.00
2023-01-11T03:01:42.565Z,0.00
2023-01-11T03:02:42.683Z,0.00
2023-01-11T03:03:42.530Z,0.00
2023-01-11T03:04:42.499Z,0.00
2023-01-11T03:05:42.508Z,0.00
2023-01-11T03:06:42.524Z,0.00
2023-01-11T03:07:42.462Z,0.00
2023-01-11T03:08:42.483Z,0.00
2023-01-11T03:09:42.464Z,0.00
2023-01-11T03:10:42.442Z,0.00
2023-01-11T03:11:42.458Z,0.00
2023-01-11T03:12:42.439Z,0.00
2023-01-11T03:13:42.413Z,0.00
2023-01-11T03:14:42.528Z,0.00
2023-01-11T03:15:42.456Z,0.00
2023-01-11T03:16:42.367Z,0.00
2023-01-11T03:17:42.345Z,0.00
2023-01-11T03:18:42.344Z,0.00
2023-01-11T03:19:42.330Z,0.00
2023-01-11T03:20:42.646Z,0.00
2023-01-11T03:21:42.291Z,0.00
2023-01-11T03:22:42.295Z,0.00
2023-01-11T03:23:42.292Z,0.00
2023-01-11T03:24:42.285Z,0.00
2023-01-11T03:25:42.258Z,0.00
2023-01-11T03:26:42.295Z,0.00
2023-01-11T03:27:42.227Z,0.00
2023-01-11T03:28:42.253Z,0.00
2023-01-11T03:29:42.234Z,0.00
2023-01-11T03:30:42.232Z,0.00
2023-01-11T03:31:42.257Z,0.00
2023-01-11T03:32:42.205Z,0.00
2023-01-11T03:33:42.148Z,0.00
2023-01-11T03:34:42.148Z,0.00
2023-01-11T03:35:42.126Z,0.00
2023-01-11T03:36:42.184Z,0.00
2023-01-11T03:37:42.138Z,0.00
2023-01-11T03:38:42.129Z,0.00
2023-01-11T03:39:42.116Z,0.00
2023-01-11T03:40:42.080Z,0.00
2023-01-11T03:41:42.089Z,0.00
2023-01-11T03:42:42.116Z,0.00
2023-01-11T03:43:42.029Z,0.00
2023-01-11T03:44:42.038Z,0.00
2023-01-11T03:45:42.011Z,0.00
2023-01-11T03:46:42.081Z,0.00
2023-01-11T03:47:42.038Z,0.00
2023-01-11T03:48:42.016Z,0.00
2023-01-11T03:49:41.970Z,0.00
2023-01-11T03:50:41.995Z,0.00
2023-01-11T03:51:42.008Z,0.00
2023-01-11T03:52:41.943Z,0.00
2023-01-11T03:53:41.939Z,0.00
2023-01-11T03:54:41.943Z,0.00
2023-01-11T03:55:41.915Z,0.00
2023-01-11T03:56:41.919Z,0.00
2023-01-11T03:57:41.952Z,0.00
2023-01-11T03:58:41.897Z,0.00
2023-01-11T03:59:41.854Z,0.00
2023-01-11T04:00:41.901Z,0.00
2023-01-11T04:01:41.823Z,0.00
2023-01-11T04:02:41.879Z,0.00
2023-01-11T04:03:41.815Z,0.00
2023-01-11T04:04:41.806Z,0.00
2023-01-11T04:05:41.802Z,0.00
2023-01-11T04:06:41.847Z,0.00
2023-01-11T04:07:41.753Z,0.00
2023-01-11T04:08:41.821Z,0.00
2023-01-11T04:09:41.769Z,0.00
2023-01-11T04:10:41.761Z,0.00
2023-01-11T04:11:41.705Z,0.00
2023-01-11T04:12:41.743Z,0.00
2023-01-11T04:13:41.693Z,0.00
2023-01-11T04:14:41.761Z,0.00
2023-01-11T04:15:41.671Z,0.00
2023-01-11T04:16:41.721Z,0.00
2023-01-11T04:17:41.636Z,0.00
2023-01-11T04:18:41.670Z,0.00
2023-01-11T04:19:41.614Z,0.00
2023-01-11T04:20:41.654Z,0.00
2023-01-11T04:21:41.628Z,0.00
2023-01-11T04:22:41.632Z,0.00
2023-01-11T04:23:41.595Z,0.00
2023-01-11T04:24:41.909Z,0.00
2023-01-11T04:25:41.545Z,0.00
2023-01-11T04:26:41.557Z,0.00
2023-01-11T04:27:41.545Z,0.00
2023-01-11T04:28:41.522Z,0.00
2023-01-11T04:29:41.496Z,0.00
2023-01-11T04:30:41.659Z,0.00
2023-01-11T04:31:41.515Z,0.00
2023-01-11T04:32:41.480Z,0.00
2023-01-11T04:33:41.475Z,0.00
2023-01-11T04:34:41.475Z,0.00
2023-01-11T04:35:41.453Z,0.00
2023-01-11T04:36:41.648Z,0.00
2023-01-11T04:37:41.404Z,0.00
2023-01-11T04:38:41.432Z,0.00
2023-01-11T04:39:41.405Z,0.00
2023-01-11T04:40:41.411Z,0.00
2023-01-11T04:41:41.400Z,0.00
2023-01-11T04:42:41.430Z,0.00
2023-01-11T04:43:41.332Z,0.00
2023-01-11T04:44:41.438Z,0.00
2023-01-11T04:45:41.358Z,0.00
2023-01-11T04:46:41.311Z,0.00
2023-01-11T04:47:48.594Z,0.00
2023-01-11T04:48:41.285Z,0.00
2023-01-11T04:49:41.274Z,0.00
2023-01-11T04:50:41.343Z,0.00
2023-01-11T04:51:41.266Z,0.00
2023-01-11T04:52:41.237Z,0.00
2023-01-11T04:53:41.249Z,0.00
2023-01-11T04:54:41.312Z,0.00
2023-01-11T04:55:41.193Z,0.00
2023-01-11T04:56:41.230Z,0.00
2023-01-11T04:57:41.165Z,0.00
2023-01-11T04:58:41.215Z,0.00
2023-01-11T04:59:41.152Z,0.00
2023-01-11T05:00:41.259Z,0.00
2023-01-11T05:01:41.307Z,0.00
2023-01-11T05:02:41.135Z,0.00
2023-01-11T05:03:41.193Z,0.00
2023-01-11T05:04:41.174Z,0.00
2023-01-11T05:05:41.104Z,0.00
2023-01-11T05:06:41.140Z,0.00
2023-01-11T05:07:41.075Z,0.00
2023-01-11T05:08:41.056Z,0.00
2023-01-11T05:09:41.105Z,0.00
2023-01-11T05:10:41.063Z,0.00
2023-01-11T05:11:41.016Z,0.00
2023-01-11T05:12:41.024Z,0.00
2023-01-11T05:13:40.999Z,0.00
2023-01-11T05:14:40.997Z,0.00
2023-01-11T05:15:41.015Z,0.00
2023-01-11T05:16:40.977Z,0.00
2023-01-11T05:17:40.968Z,0.00
2023-01-11T05:18:40.940Z,0.00
2023-01-11T05:19:40.993Z,0.00
2023-01-11T05:20:40.929Z,0.00
2023-01-11T05:21:46.397Z,0.00
2023-01-11T05:22:40.893Z,0.00
2023-01-11T05:23:40.898Z,0.00
2023-01-11T05:24:40.905Z,0.00
2023-01-11T05:25:41.040Z,0.00
2023-01-11T05:26:41.162Z,0.00
2023-01-11T05:27:40.827Z,0.00
2023-01-11T05:28:40.832Z,0.00
2023-01-11T05:29:40.845Z,0.00
2023-01-11T05:30:40.827Z,0.00
2023-01-11T05:31:40.891Z,0.00
2023-01-11T05:32:40.811Z,0.00
2023-01-11T05:33:40.789Z,0.00
2023-01-11T05:34:40.753Z,0.00
2023-01-11T05:35:40.752Z,0.00
2023-01-11T05:36:40.824Z,0.00
2023-01-11T05:37:40.732Z,0.00
2023-01-11T05:38:40.714Z,0.00
2023-01-11T05:39:40.684Z,0.00
2023-01-11T05:40:40.687Z,0.00
2023-01-11T05:41:40.693Z,0.00
2023-01-11T05:42:40.720Z,0.00
2023-01-11T05:43:40.643Z,0.00
2023-01-11T05:44:40.675Z,0.00
2023-01-11T05:45:40.687Z,0.00
2023-01-11T05:46:40.684Z,0.00
2023-01-11T05:47:40.628Z,0.00
2023-01-11T05:48:40.596Z,0.00
2023-01-11T05:49:40.612Z,0.00
2023-01-11T05:50:40.621Z,0.00
2023-01-11T05:51:40.583Z,0.00
2023-01-11T05:52:40.576Z,0.00
2023-01-11T05:53:40.556Z,0.00
2023-01-11T05:54:40.554Z,0.00
2023-01-11T05:55:40.507Z,0.00
2023-01-11T05:56:40.570Z,0.00
2023-01-11T05:57:40.477Z,0.00
2023-01-11T05:58:40.507Z,0.00
2023-01-11T05:59:40.506Z,0.00
2023-01-11T06:00:40.480Z,0.00
2023-01-11T06:01:40.499Z,0.00
2023-01-11T06:02:40.528Z,0.00
2023-01-11T06:03:40.451Z,0.00
2023-01-11T06:04:40.426Z,0.00
2023-01-11T06:05:40.423Z,0.00
2023-01-11T06:06:40.425Z,0.00
2023-01-11T06:07:40.417Z,0.00
2023-01-11T06:08:40.375Z,0.00
2023-01-11T06:09:40.379Z,0.00
2023-01-11T06:10:40.360Z,0.00
2023-01-11T06:11:40.378Z,0.00
2023-01-11T06:12:40.334Z,0.00
2023-01-11T06:13:40.321Z,0.00
2023-01-11T06:14:40.325Z,0.00
2023-01-11T06:15:40.291Z,0.00
2023-01-11T06:16:40.344Z,0.00
2023-01-11T06:17:40.291Z,0.00
2023-01-11T06:18:40.300Z,0.00
2023-01-11T06:19:40.243Z,0.00
2023-01-11T06:20:40.248Z,0.00
2023-01-11T06:21:40.223Z,0.00
2023-01-11T06:22:40.211Z,0.00
2023-01-11T06:23:40.293Z,0.00
2023-01-11T06:24:40.202Z,0.00
2023-01-11T06:25:40.171Z,0.00
2023-01-11T06:26:40.154Z,0.00
2023-01-11T06:27:40.170Z,0.00
2023-01-11T06:28:40.158Z,0.00
2023-01-11T06:29:40.184Z,0.00
2023-01-11T06:30:40.128Z,0.00
2023-01-11T06:31:40.121Z,0.00
2023-01-11T06:32:40.101Z,0.00
2023-01-11T06:33:40.086Z,0.00
2023-01-11T06:34:40.093Z,0.00
2023-01-11T06:35:40.220Z,0.00
2023-01-11T06:36:42.325Z,0.00
2023-01-11T06:37:40.030Z,0.00
2023-01-11T06:38:40.047Z,0.00
2023-01-11T06:39:40.073Z,0.00
2023-01-11T06:40:39.989Z,0.00
2023-01-11T06:41:40.042Z,0.00
2023-01-11T06:42:40.098Z,0.00
2023-01-11T06:43:39.994Z,0.00
2023-01-11T06:44:46.428Z,0.00
2023-01-11T06:45:40.005Z,0.00
2023-01-11T06:46:40.039Z,0.00
2023-01-11T06:47:39.947Z,0.00
2023-01-11T06:48:39.925Z,0.00
2023-01-11T06:49:39.927Z,0.00
2023-01-11T06:50:39.909Z,0.00
2023-01-11T06:51:39.896Z,0.00
2023-01-11T06:52:39.860Z,0.00
2023-01-11T06:53:39.863Z,0.00
2023-01-11T06:54:39.829Z,0.00
2023-01-11T06:55:39.891Z,0.00
2023-01-11T06:56:39.811Z,0.00
2023-01-11T06:57:39.805Z,0.00
2023-01-11T06:58:39.815Z,0.00
2023-01-11T06:59:39.779Z,0.00
2023-01-11T07:00:39.800Z,0.00
2023-01-11T07:01:39.827Z,0.00
2023-01-11T07:02:39.762Z,0.00
2023-01-11T07:03:39.735Z,0.00
2023-01-11T07:04:39.713Z,4.00
2023-01-11T07:05:39.732Z,4.00
2023-01-11T07:06:39.697Z,4.00
2023-01-11T07:07:39.702Z,4.00
2023-01-11T07:08:39.676Z,4.00
2023-01-11T07:09:39.673Z,4.00
2023-01-11T07:10:39.699Z,0.00
2023-01-11T07:11:39.655Z,0.00
2023-01-11T07:12:39.625Z,0.00
2023-01-11T07:13:39.657Z,4.00
2023-01-11T07:14:39.606Z,4.00
2023-01-11T07:15:39.742Z,4.00
2023-01-11T07:16:39.583Z,4.00
2023-01-11T07:17:39.585Z,4.00
2023-01-11T07:18:39.585Z,4.00
2023-01-11T07:19:39.581Z,8.00
2023-01-11T07:20:39.531Z,4.00
2023-01-11T07:21:39.545Z,4.00
2023-01-11T07:22:39.535Z,8.00
2023-01-11T07:23:39.549Z,8.00
2023-01-11T07:24:39.486Z,8.00
2023-01-11T07:25:39.493Z,8.00
2023-01-11T07:26:39.458Z,12.00
2023-01-11T07:27:39.536Z,12.00
2023-01-11T07:28:39.438Z,12.00
2023-01-11T07:29:39.465Z,12.00
2023-01-11T07:30:56.761Z,12.00
2023-01-11T07:31:40.519Z,12.00
2023-01-11T07:32:39.417Z,12.00
2023-01-11T07:33:39.428Z,12.00
2023-01-11T07:34:39.368Z,12.00
2023-01-11T07:35:39.395Z,16.00
2023-01-11T07:36:39.378Z,24.00
2023-01-11T07:37:39.359Z,20.00
2023-01-11T07:38:39.376Z,20.00
2023-01-11T07:39:43.843Z,16.00
2023-01-11T07:40:39.357Z,16.00
2023-01-11T07:41:39.362Z,16.00
2023-01-11T07:42:39.299Z,16.00
2023-01-11T07:43:39.272Z,20.00
2023-01-11T07:44:39.338Z,20.00
2023-01-11T07:45:45.902Z,16.00
2023-01-11T07:46:40.364Z,16.00
2023-01-11T07:47:39.232Z,16.00
2023-01-11T07:48:39.203Z,24.00
2023-01-11T07:49:39.240Z,24.00
2023-01-11T07:50:39.230Z,28.00
2023-01-11T07:51:39.202Z,32.00
2023-01-11T07:52:39.154Z,28.00
2023-01-11T07:53:39.162Z,24.00
2023-01-11T07:54:39.138Z,32.00
2023-01-11T07:55:39.160Z,32.00
2023-01-11T07:56:39.125Z,36.00
2023-01-11T07:57:39.144Z,40.00
2023-01-11T07:58:39.111Z,44.00
2023-01-11T07:59:39.113Z,36.00
2023-01-11T08:00:39.087Z,36.00
2023-01-11T08:01:39.092Z,44.00
2023-01-11T08:02:39.146Z,40.00
2023-01-11T08:03:39.179Z,44.00
2023-01-11T08:04:39.046Z,44.00
2023-01-11T08:05:39.033Z,64.00
2023-01-11T08:06:39.028Z,80.00
2023-01-11T08:07:39.031Z,100.00
2023-01-11T08:08:39.015Z,112.00
2023-01-11T08:09:38.968Z,116.00
2023-01-11T08:10:41.244Z,116.00
2023-01-11T08:11:39.100Z,124.00
2023-01-11T08:12:38.955Z,128.00
2023-01-11T08:13:38.931Z,132.00
2023-01-11T08:14:38.901Z,152.00
2023-01-11T08:15:39.070Z,160.00
2023-01-11T08:16:38.910Z,168.00
2023-01-11T08:17:38.890Z,164.00
2023-01-11T08:18:38.856Z,148.00
2023-01-11T08:19:38.860Z,128.00
2023-01-11T08:20:38.843Z,148.00
2023-01-11T08:21:38.888Z,136.00
2023-01-11T08:22:38.810Z,148.00
2023-01-11T08:23:38.814Z,144.00
2023-01-11T08:24:38.794Z,116.00
2023-01-11T08:25:38.798Z,132.00
2023-01-11T08:26:38.835Z,168.00
2023-01-11T08:27:40.619Z,164.00
2023-01-11T08:28:38.752Z,124.00
2023-01-11T08:29:38.852Z,168.00
2023-01-11T08:30:38.721Z,200.00
2023-01-11T08:31:38.780Z,156.00
2023-01-11T08:32:38.695Z,180.00
2023-01-11T08:33:38.722Z,212.00
2023-01-11T08:34:38.691Z,260.00
2023-01-11T08:35:38.669Z,296.00
2023-01-11T08:36:38.684Z,336.00
2023-01-11T08:37:38.701Z,412.00
2023-01-11T08:38:38.650Z,360.00
2023-01-11T08:39:38.645Z,268.00
2023-01-11T08:40:38.609Z,248.00
2023-01-11T08:41:38.606Z,220.00
2023-01-11T08:42:38.612Z,228.00
2023-01-11T08:43:38.614Z,248.00
2023-01-11T08:44:38.585Z,240.00
2023-01-11T08:45:38.590Z,372.00
2023-01-11T08:46:38.550Z,444.00
2023-01-11T08:47:38.633Z,428.00
2023-01-11T08:48:38.510Z,380.00
2023-01-11T08:49:38.509Z,472.00
2023-01-11T08:50:38.485Z,372.00
2023-01-11T08:51:38.545Z,292.00
2023-01-11T08:52:38.486Z,264.00
2023-01-11T08:53:38.458Z,260.00
2023-01-11T08:54:38.457Z,296.00
2023-01-11T08:55:38.438Z,300.00
2023-01-11T08:56:38.475Z,328.00
2023-01-11T08:57:38.490Z,344.00
2023-01-11T08:58:38.415Z,360.00
2023-01-11T08:59:38.415Z,404.00
2023-01-11T09:00:38.391Z,368.00
2023-01-11T09:01:38.488Z,420.00
2023-01-11T09:02:38.383Z,400.00
2023-01-11T09:03:38.366Z,324.00
2023-01-11T09:04:38.369Z,208.00
2023-01-11T09:05:38.322Z,288.00
2023-01-11T09:06:38.303Z,392.00
2023-01-11T09:07:38.411Z,388.00
2023-01-11T09:08:38.282Z,388.00
2023-01-11T09:09:38.297Z,512.00
2023-01-11T09:10:38.267Z,332.00
2023-01-11T09:11:38.291Z,288.00
2023-01-11T09:12:38.248Z,336.00
2023-01-11T09:13:38.253Z,420.00
2023-01-11T09:14:38.208Z,700.00
2023-01-11T09:15:38.224Z,660.00
2023-01-11T09:16:38.218Z,660.00
2023-01-11T09:17:38.233Z,564.00
2023-01-11T09:18:38.208Z,468.00
2023-01-11T09:19:38.199Z,648.00
2023-01-11T09:20:38.153Z,732.00
2023-01-11T09:21:38.136Z,692.00
2023-01-11T09:22:38.183Z,688.00
2023-01-11T09:23:38.132Z,776.00
2023-01-11T09:24:38.131Z,728.00
2023-01-11T09:25:38.110Z,660.00
2023-01-11T09:26:38.129Z,612.00
2023-01-11T09:27:38.098Z,616.00
2023-01-11T09:28:38.028Z,596.00
2023-01-11T09:29:38.204Z,580.00
2023-01-11T09:30:38.032Z,452.00
2023-01-11T09:31:38.109Z,412.00
2023-01-11T09:32:37.988Z,444.00
2023-01-11T09:33:38.017Z,532.00
2023-01-11T09:34:37.982Z,548.00
2023-01-11T09:35:38.015Z,564.00
2023-01-11T09:36:37.936Z,620.00
2023-01-11T09:37:37.977Z,584.00
2023-01-11T09:38:37.910Z,524.00
2023-01-11T09:39:37.944Z,536.00
2023-01-11T09:40:37.888Z,688.00
2023-01-11T09:41:37.935Z,788.00
2023-01-11T09:42:38.081Z,840.00
2023-01-11T09:43:37.889Z,836.00
2023-01-11T09:44:37.866Z,740.00
2023-01-11T09:45:37.854Z,708.00
2023-01-11T09:46:37.871Z,776.00
2023-01-11T09:47:37.840Z,740.00
2023-01-11T09:48:37.904Z,844.00
2023-01-11T09:49:37.819Z,816.00
2023-01-11T09:50:37.772Z,948.00
2023-01-11T09:51:37.796Z,912.00
2023-01-11T09:52:37.773Z,920.00
2023-01-11T09:53:37.779Z,920.00
2023-01-11T09:54:37.745Z,916.00
2023-01-11T09:55:37.769Z,860.00
2023-01-11T09:56:37.694Z,856.00
2023-01-11T09:57:37.733Z,688.00
2023-01-11T09:58:37.693Z,676.00
2023-01-11T09:59:37.688Z,804.00
2023-01-11T10:00:37.718Z,784.00
2023-01-11T10:01:37.671Z,828.00
2023-01-11T10:02:37.661Z,912.00
2023-01-11T10:03:37.645Z,924.00
2023-01-11T10:04:37.722Z,948.00
2023-01-11T10:05:37.613Z,976.00
2023-01-11T10:06:37.602Z,1080.00
2023-01-11T10:07:37.630Z,1104.00
2023-01-11T10:18:22.821Z,1096.00
2023-01-11T10:18:30.185Z,972.00
2023-01-11T10:18:40.322Z,712.00
2023-01-11T10:29:34.658Z,696.00
2023-01-11T10:30:34.669Z,680.00
2023-01-11T10:31:34.646Z,704.00
2023-01-11T10:32:36.316Z,716.00
2023-01-11T10:33:34.624Z,856.00
2023-01-11T10:34:34.588Z,776.00
2023-01-11T10:35:34.579Z,764.00
2023-01-11T10:36:34.589Z,924.00
2023-01-11T10:37:34.549Z,816.00
2023-01-11T10:38:34.596Z,736.00
2023-01-11T10:39:34.523Z,780.00
2023-01-11T10:40:34.550Z,908.00
2023-01-11T10:41:34.500Z,1064.00
2023-01-11T10:42:41.519Z,956.00
2023-01-11T10:43:34.479Z,1048.00
2023-01-11T10:44:34.565Z,1188.00
2023-01-11T10:45:34.531Z,1124.00
2023-01-11T10:46:34.476Z,1072.00
2023-01-11T10:47:34.443Z,1360.00
2023-01-11T10:48:34.475Z,1292.00
2023-01-11T10:49:35.909Z,1076.00
2023-01-11T10:50:34.480Z,1156.00
2023-01-11T10:51:34.430Z,1160.00
2023-01-11T10:52:34.418Z,1232.00
2023-01-11T10:53:34.392Z,1232.00
2023-01-11T10:54:34.371Z,1396.00
2023-01-11T10:55:34.480Z,1428.00
2023-01-11T10:56:34.343Z,1344.00
2023-01-11T10:57:34.325Z,1348.00
2023-01-11T10:58:34.350Z,1536.00
2023-01-11T10:59:34.320Z,1332.00
2023-01-11T11:00:34.390Z,1576.00
2023-01-11T11:01:34.330Z,1980.00
2023-01-11T11:02:34.345Z,2068.00
2023-01-11T11:03:34.287Z,2376.00
2023-01-11T11:04:34.251Z,2552.00
2023-01-11T11:05:55.264Z,2812.00
2023-01-11T11:06:34.408Z,2788.00
2023-01-11T11:07:34.233Z,2672.00
2023-01-11T11:08:34.285Z,2452.00
2023-01-11T11:09:34.194Z,2320.00
2023-01-11T11:10:34.312Z,2424.00
2023-01-11T11:11:34.177Z,2488.00
2023-01-11T11:12:34.156Z,2520.00
2023-01-11T11:13:34.158Z,2552.00
2023-01-11T11:14:34.212Z,2740.00
2023-01-11T11:15:34.170Z,2816.00
2023-01-11T11:16:34.358Z,2916.00
2023-01-11T11:17:34.123Z,3164.00
2023-01-11T11:18:34.076Z,3144.00
2023-01-11T11:19:34.106Z,2920.00
2023-01-11T11:20:34.074Z,3352.00
2023-01-11T11:21:34.062Z,3864.00
2023-01-11T11:22:34.029Z,3644.00
2023-01-11T11:23:34.054Z,3348.00
2023-01-11T11:24:34.109Z,2544.00
2023-01-11T11:25:34.036Z,2056.00
2023-01-11T11:26:34.012Z,1924.00
2023-01-11T11:27:33.979Z,1836.00
2023-01-11T11:28:34.003Z,1940.00
2023-01-11T11:29:33.984Z,1840.00
2023-01-11T11:30:33.975Z,2136.00
2023-01-11T11:31:33.975Z,3536.00
2023-01-11T11:32:36.441Z,5044.00
2023-01-11T11:33:33.939Z,4704.00
2023-01-11T11:34:33.921Z,5416.00
2023-01-11T11:35:33.971Z,4316.00
2023-01-11T11:36:33.865Z,5284.00
2023-01-11T11:37:33.902Z,4336.00
2023-01-11T11:38:33.869Z,3332.00
2023-01-11T11:39:33.870Z,2188.00
2023-01-11T11:40:33.843Z,1880.00
2023-01-11T11:41:33.891Z,1588.00
2023-01-11T11:42:33.815Z,1576.00
2023-01-11T11:43:33.835Z,1540.00
2023-01-11T11:44:33.771Z,1744.00
2023-01-11T11:45:33.829Z,2120.00
2023-01-11T11:46:33.769Z,1952.00
2023-01-11T11:47:33.765Z,1636.00
2023-01-11T11:48:33.724Z,1480.00
2023-01-11T11:49:33.722Z,1536.00
2023-01-11T11:50:49.146Z,1728.00
2023-01-11T11:51:34.722Z,1928.00
2023-01-11T11:52:33.711Z,2112.00
2023-01-11T11:53:33.695Z,3512.00
2023-01-11T11:54:33.697Z,1932.00
2023-01-11T11:55:33.680Z,2132.00
2023-01-11T11:56:33.629Z,3208.00
2023-01-11T11:57:33.674Z,3732.00
2023-01-11T11:58:33.619Z,3712.00
2023-01-11T11:59:33.603Z,3228.00
2023-01-11T12:00:33.575Z,5216.00
2023-01-11T12:01:33.604Z,5744.00
2023-01-11T12:02:33.665Z,6408.00
2023-01-11T12:03:33.560Z,6156.00
2023-01-11T12:04:33.551Z,5672.00
2023-01-11T12:05:33.537Z,5872.00
2023-01-11T12:06:33.532Z,5484.00
2023-01-11T12:07:36.106Z,5788.00
2023-01-11T12:08:33.500Z,5780.00
2023-01-11T12:09:33.586Z,5048.00
2023-01-11T12:10:33.544Z,3636.00
2023-01-11T12:11:33.459Z,3404.00
2023-01-11T12:12:33.456Z,2880.00
2023-01-11T12:13:33.479Z,3108.00
2023-01-11T12:14:33.400Z,2804.00
2023-01-11T12:15:33.433Z,2700.00
2023-01-11T12:16:33.409Z,1864.00
2023-01-11T12:17:33.400Z,1656.00
2023-01-11T12:18:33.429Z,1648.00
2023-01-11T12:19:33.368Z,1560.00
2023-01-11T12:20:33.366Z,1736.00
2023-01-11T12:21:33.397Z,1668.00
2023-01-11T12:22:33.337Z,1616.00
2023-01-11T12:23:33.330Z,1648.00
2023-01-11T12:24:33.308Z,1776.00
2023-01-11T12:25:33.295Z,1780.00
2023-01-11T12:26:33.322Z,1592.00
2023-01-11T12:27:33.263Z,1700.00
2023-01-11T12:28:33.239Z,1840.00
2023-01-11T12:29:33.245Z,2080.00
2023-01-11T12:30:33.271Z,2540.00
2023-01-11T12:31:33.309Z,1964.00
2023-01-11T12:32:33.235Z,1984.00
2023-01-11T12:33:33.195Z,2016.00
2023-01-11T12:34:33.214Z,2032.00
2023-01-11T12:35:33.174Z,2100.00
2023-01-11T12:36:33.190Z,1444.00
2023-01-11T12:37:33.155Z,1352.00
2023-01-11T12:38:33.131Z,1724.00
2023-01-11T12:39:33.161Z,2396.00
2023-01-11T12:40:33.145Z,1860.00
2023-01-11T12:41:33.150Z,1816.00
2023-01-11T12:42:33.077Z,1836.00
2023-01-11T12:43:33.088Z,1820.00
2023-01-11T12:44:33.074Z,2112.00
2023-01-11T12:45:33.073Z,1948.00
2023-01-11T12:46:33.285Z,2084.00
2023-01-11T12:47:33.040Z,2096.00
2023-01-11T12:48:33.040Z,2420.00
2023-01-11T12:49:33.024Z,3096.00
2023-01-11T12:50:32.994Z,2228.00
2023-01-11T12:51:32.995Z,2348.00
2023-01-11T12:52:33.103Z,2800.00
2023-01-11T12:53:32.976Z,2392.00
2023-01-11T12:54:32.928Z,2728.00
2023-01-11T12:55:32.934Z,3588.00
2023-01-11T12:56:32.899Z,2980.00
2023-01-11T12:57:32.903Z,2064.00
2023-01-11T12:58:33.013Z,1940.00
2023-01-11T12:59:32.909Z,2260.00
2023-01-11T13:00:32.851Z,2800.00
2023-01-11T13:01:32.957Z,2060.00
2023-01-11T13:02:32.915Z,1848.00
2023-01-11T13:03:32.849Z,1956.00
2023-01-11T13:04:33.012Z,2504.00
2023-01-11T13:05:32.827Z,3348.00
2023-01-11T13:06:32.780Z,2536.00
2023-01-11T13:07:32.813Z,2268.00
2023-01-11T13:08:32.825Z,1540.00
2023-01-11T13:09:32.759Z,1488.00
2023-01-11T13:10:32.734Z,1644.00